createdAt,value
2022-10-06T00:00:49.865Z,99358.40
2022-10-06T00:03:17.340Z,99362.40
2022-10-06T00:05:44.783Z,99362.00
2022-10-06T00:08:11.610Z,99360.80
2022-10-06T00:10:40.009Z,99356.40
2022-10-06T00:13:07.473Z,99363.20
2022-10-06T00:15:34.313Z,99359.20
2022-10-06T00:18:02.129Z,99364.20
2022-10-06T00:20:29.993Z,99360.60
2022-10-06T00:22:59.608Z,99358.80
2022-10-06T00:25:28.119Z,99354.80
2022-10-06T00:27:56.174Z,99360.80
2022-10-06T00:30:26.329Z,99358.00
2022-10-06T00:32:57.507Z,99350.60
2022-10-06T00:35:32.450Z,99348.60
2022-10-06T00:38:03.574Z,99349.40
2022-10-06T00:40:32.541Z,99346.40
2022-10-06T00:43:06.662Z,99348.20
2022-10-06T00:45:48.694Z,99343.60
2022-10-06T00:48:26.793Z,99340.40
2022-10-06T00:50:58.462Z,99342.60
2022-10-06T00:53:29.973Z,99336.60
2022-10-06T00:55:57.300Z,99342.40
2022-10-06T00:58:25.226Z,99340.40
2022-10-06T01:00:54.596Z,99336.80
2022-10-06T01:03:34.264Z,99335.20
2022-10-06T01:06:02.306Z,99343.20
2022-10-06T01:08:31.158Z,99339.20
2022-10-06T01:10:58.510Z,99340.00
2022-10-06T01:13:27.410Z,99340.80
2022-10-06T01:16:03.818Z,99342.00
2022-10-06T01:18:33.290Z,99334.60
2022-10-06T01:21:34.093Z,99336.80
2022-10-06T01:24:03.509Z,99337.20
2022-10-06T01:26:33.171Z,99339.20
2022-10-06T01:29:00.249Z,99336.60
2022-10-06T01:31:27.320Z,99337.80
2022-10-06T01:33:54.783Z,99336.60
2022-10-06T01:36:22.008Z,99335.20
2022-10-06T01:38:48.496Z,99339.00
2022-10-06T01:41:15.111Z,99335.80
2022-10-06T01:43:41.552Z,99333.60
2022-10-06T01:46:08.082Z,99330.60
2022-10-06T01:48:36.954Z,99330.00
2022-10-06T01:51:03.911Z,99327.40
2022-10-06T01:53:30.420Z,99325.80
2022-10-06T01:56:00.451Z,99329.20
2022-10-06T01:58:27.522Z,99327.20
2022-10-06T02:00:54.447Z,99327.20
2022-10-06T02:03:20.918Z,99328.80
2022-10-06T02:05:47.447Z,99330.80
2022-10-06T02:08:14.007Z,99335.20
2022-10-06T02:13:36.550Z,99344.00
2022-10-06T02:16:06.723Z,99345.20
2022-10-06T02:18:34.372Z,99345.20
2022-10-06T02:21:02.547Z,99340.00
2022-10-06T02:23:30.951Z,99342.20
2022-10-06T02:26:03.441Z,99341.40
2022-10-06T02:28:31.501Z,99350.20
2022-10-06T02:31:08.465Z,99346.80
2022-10-06T02:33:36.956Z,99346.00
2022-10-06T02:36:05.585Z,99346.60
2022-10-06T02:38:32.882Z,99344.60
2022-10-06T02:41:00.755Z,99352.40
2022-10-06T02:43:29.535Z,99349.80
2022-10-06T02:46:05.779Z,99348.20
2022-10-06T02:48:33.245Z,99349.20
2022-10-06T02:51:03.654Z,99345.60
2022-10-06T02:53:30.354Z,99350.40
2022-10-06T02:56:12.424Z,99352.40
2022-10-06T02:58:40.013Z,99351.60
2022-10-06T03:01:13.789Z,99355.00
2022-10-06T03:03:41.140Z,99361.40
2022-10-06T03:06:21.790Z,99368.00
2022-10-06T03:09:05.693Z,99374.20
2022-10-06T03:11:38.666Z,99375.80
2022-10-06T03:14:06.801Z,99372.00
2022-10-06T03:16:43.549Z,99369.40
2022-10-06T03:19:10.741Z,99374.60
2022-10-06T03:21:41.709Z,99373.40
2022-10-06T03:24:08.782Z,99377.00
2022-10-06T03:26:40.269Z,99375.20
2022-10-06T03:29:11.306Z,99377.80
2022-10-06T03:31:39.482Z,99383.20
2022-10-06T03:34:06.563Z,99379.00
2022-10-06T03:36:34.811Z,99387.00
2022-10-06T03:39:04.892Z,99387.40
2022-10-06T03:41:35.163Z,99385.60
2022-10-06T03:44:02.129Z,99393.80
2022-10-06T03:46:32.411Z,99396.60
2022-10-06T03:48:59.657Z,99395.20
2022-10-06T03:51:32.887Z,99392.60
2022-10-06T03:54:00.344Z,99393.60
2022-10-06T03:56:39.383Z,99396.00
2022-10-06T03:59:10.286Z,99399.00
2022-10-06T04:01:43.452Z,99402.60
2022-10-06T04:04:11.696Z,99404.00
2022-10-06T04:06:41.769Z,99406.60
2022-10-06T04:09:15.208Z,99410.60
2022-10-06T04:11:44.372Z,99411.60
2022-10-06T04:14:15.388Z,99409.60
2022-10-06T04:16:48.848Z,99413.00
2022-10-06T04:19:17.275Z,99422.00
2022-10-06T04:22:59.894Z,99419.20
2022-10-06T04:25:26.360Z,99424.40
2022-10-06T04:27:53.476Z,99428.60
2022-10-06T04:30:20.174Z,99425.00
2022-10-06T04:32:46.668Z,99429.80
2022-10-06T04:35:13.470Z,99432.60
2022-10-06T04:37:40.584Z,99438.40
2022-10-06T04:40:08.167Z,99439.20
2022-10-06T04:42:35.392Z,99444.20
2022-10-06T04:45:02.653Z,99447.40
2022-10-06T04:47:29.318Z,99448.20
2022-10-06T04:49:55.820Z,99450.60
2022-10-06T04:52:23.081Z,99459.40
2022-10-06T04:54:49.919Z,99457.00
2022-10-06T04:57:16.441Z,99462.00
2022-10-06T05:00:06.113Z,99461.40
2022-10-06T05:02:34.730Z,99463.40
2022-10-06T05:05:01.250Z,99466.40
2022-10-06T05:07:27.728Z,99465.20
2022-10-06T05:09:54.306Z,99464.40
2022-10-06T05:12:20.808Z,99467.60
2022-10-06T05:14:48.057Z,99470.20
2022-10-06T05:17:14.708Z,99472.00
2022-10-06T05:19:41.215Z,99470.80
2022-10-06T05:22:07.737Z,99469.60
2022-10-06T05:24:34.285Z,99475.40
2022-10-06T05:27:02.876Z,99478.60
2022-10-06T05:29:29.737Z,99479.40
2022-10-06T05:31:56.319Z,99478.40
2022-10-06T05:34:22.864Z,99483.60
2022-10-06T05:36:49.374Z,99488.80
2022-10-06T05:39:15.838Z,99486.60
2022-10-06T05:41:42.454Z,99498.00
2022-10-06T05:44:09.121Z,99493.40
2022-10-06T05:46:36.426Z,99501.40
2022-10-06T05:49:11.416Z,99503.60
2022-10-06T05:51:40.550Z,99505.20
2022-10-06T05:54:07.442Z,99508.40
2022-10-06T05:56:38.480Z,99518.60
2022-10-06T05:59:06.455Z,99522.40
2022-10-06T06:01:39.876Z,99529.80
2022-10-06T06:04:10.792Z,99530.60
2022-10-06T06:06:43.884Z,99534.20
2022-10-06T06:09:20.343Z,99533.00
2022-10-06T06:11:50.044Z,99541.80
2022-10-06T06:14:40.357Z,99541.40
2022-10-06T06:17:07.296Z,99543.00
2022-10-06T06:19:33.802Z,99548.20
2022-10-06T06:22:00.384Z,99554.80
2022-10-06T06:24:26.902Z,99556.60
2022-10-06T06:26:53.449Z,99560.60
2022-10-06T06:29:20.245Z,99565.20
2022-10-06T06:31:48.592Z,99566.00
2022-10-06T06:34:15.222Z,99574.60
2022-10-06T06:36:47.574Z,99572.40
2022-10-06T06:39:15.924Z,99583.00
2022-10-06T06:41:46.013Z,99586.20
2022-10-06T06:44:14.044Z,99593.20
2022-10-06T06:46:43.466Z,99597.40
2022-10-06T06:49:12.017Z,99604.40
2022-10-06T06:51:42.972Z,99609.60
2022-10-06T06:54:13.069Z,99608.60
2022-10-06T06:56:39.886Z,99607.60
2022-10-06T06:59:10.540Z,99609.60
2022-10-06T07:01:44.403Z,99611.40
2022-10-06T07:04:13.291Z,99610.20
2022-10-06T07:06:41.292Z,99612.00
2022-10-06T07:09:10.726Z,99617.60
2022-10-06T07:11:40.171Z,99619.80
2022-10-06T07:14:11.764Z,99626.80
2022-10-06T07:16:57.399Z,99625.20
2022-10-06T07:19:43.290Z,99625.80
2022-10-06T07:22:28.373Z,99630.40
2022-10-06T07:25:07.003Z,99627.40
2022-10-06T07:27:42.478Z,99630.60
2022-10-06T07:30:20.266Z,99635.20
2022-10-06T07:32:50.272Z,99632.00
2022-10-06T07:35:22.599Z,99635.80
2022-10-06T07:37:50.922Z,99633.00
2022-10-06T07:40:17.848Z,99632.00
2022-10-06T07:42:52.301Z,99632.00
2022-10-06T07:45:38.409Z,99623.00
2022-10-06T07:48:11.232Z,99629.00
2022-10-06T07:50:39.555Z,99628.80
2022-10-06T07:53:09.148Z,99632.20
2022-10-06T07:55:41.769Z,99639.60
2022-10-06T07:58:13.782Z,99641.80
2022-10-06T08:00:42.693Z,99642.40
2022-10-06T08:03:12.184Z,99644.20
2022-10-06T08:05:41.264Z,99651.00
2022-10-06T08:08:07.731Z,99660.40
2022-10-06T08:10:34.291Z,99656.00
2022-10-06T08:13:01.685Z,99663.40
2022-10-06T08:15:28.193Z,99664.20
2022-10-06T08:17:54.690Z,99665.20
2022-10-06T08:20:21.248Z,99665.40
2022-10-06T08:22:48.504Z,99671.00
2022-10-06T08:25:15.658Z,99679.20
2022-10-06T08:27:44.093Z,99674.20
2022-10-06T08:30:12.718Z,99680.20
2022-10-06T08:32:42.743Z,99683.60
2022-10-06T08:35:11.236Z,99678.80
2022-10-06T08:37:37.735Z,99679.60
2022-10-06T08:40:05.257Z,99690.20
2022-10-06T08:42:50.154Z,99691.20
2022-10-06T08:45:44.131Z,99694.40
2022-10-06T08:48:26.885Z,99695.40
2022-10-06T08:51:19.682Z,99701.00
2022-10-06T08:54:09.543Z,99698.60
